Stow, Massachusetts
Current Conditions -  °F | °C
As of 9:56 PM on Wednesday 22 Oct 2014 (Local Time) from KBED Reporting Station
Light Rain Light Rain  
Wind Chill: 42°   Ceiling: 1000
Heat Index: 49°   Visibility: 2.5mi
Dew Point: 48°   Wind: 22mph
Humidity: 97%   Direction: 30°NNE
Pressure: 29.84"   Gusts: 36mph
Location:  42.44°N, 71.5°W
Report Text: KBED 230156Z 03019G31KT 2 1/2SM -RA BR OVC010 09/09 A2984 RMK AO2 PK WND 03034/0125 CIG 007V014 SLP117 P0001 T00940089
Loading
Personal Weather Stations






























Interactive Weather Map
Tropical Storm Tracking
New forecast layout! Learn more

10-Day Weather Forecast

Advertisements
Track Severe Weather on mobile